createdAt,value
2019-02-21T00:02:02.206Z,8.67
2019-02-21T00:04:30.469Z,8.64
2019-02-21T00:06:58.488Z,8.60
2019-02-21T00:09:26.551Z,8.56
2019-02-21T00:11:54.735Z,8.54
2019-02-21T00:14:22.786Z,8.50
2019-02-21T00:16:50.803Z,8.47
2019-02-21T00:19:19.088Z,8.42
2019-02-21T00:21:47.145Z,8.37
2019-02-21T00:24:15.470Z,8.32
2019-02-21T00:26:44.388Z,8.29
2019-02-21T00:29:12.542Z,8.28
2019-02-21T00:31:41.022Z,8.27
2019-02-21T00:34:09.061Z,8.25
2019-02-21T00:36:37.112Z,8.22
2019-02-21T00:39:06.040Z,8.19
2019-02-21T00:41:34.398Z,8.20
2019-02-21T00:44:02.464Z,8.22
2019-02-21T00:46:31.842Z,8.19
2019-02-21T00:48:59.890Z,8.16
2019-02-21T00:51:27.940Z,8.13
2019-02-21T00:53:55.981Z,8.11
2019-02-21T00:56:24.035Z,8.09
2019-02-21T00:58:52.130Z,8.10
2019-02-21T01:01:21.026Z,8.09
2019-02-21T01:03:49.241Z,8.07
2019-02-21T01:06:17.687Z,8.07
2019-02-21T01:08:47.596Z,8.06
2019-02-21T01:11:17.429Z,8.03
2019-02-21T01:13:45.624Z,8.02
2019-02-21T01:16:13.726Z,7.99
2019-02-21T01:18:42.372Z,7.94
2019-02-21T01:21:10.388Z,7.95
2019-02-21T01:23:38.460Z,7.92
2019-02-21T01:26:07.841Z,7.90
2019-02-21T01:28:35.988Z,7.87
2019-02-21T01:31:04.144Z,7.83
2019-02-21T01:33:32.478Z,7.80
2019-02-21T01:36:00.676Z,7.79
2019-02-21T01:38:28.883Z,7.78
2019-02-21T01:40:56.966Z,7.75
2019-02-21T01:43:25.002Z,7.75
2019-02-21T01:45:53.105Z,7.69
2019-02-21T01:48:21.154Z,7.65
2019-02-21T01:50:52.314Z,7.64
2019-02-21T01:53:20.373Z,7.62
2019-02-21T01:55:48.550Z,7.60
2019-02-21T01:58:16.612Z,7.58
2019-02-21T02:00:44.716Z,7.57
2019-02-21T02:03:13.206Z,7.54
2019-02-21T02:05:41.615Z,7.55
2019-02-21T02:08:10.067Z,7.56
2019-02-21T02:10:38.487Z,7.55
2019-02-21T02:13:07.762Z,7.53
2019-02-21T02:15:35.828Z,7.52
2019-02-21T02:18:06.535Z,7.49
2019-02-21T02:20:34.593Z,7.46
2019-02-21T02:23:03.086Z,7.46
2019-02-21T02:25:31.146Z,7.44
2019-02-21T02:27:59.181Z,7.42
2019-02-21T02:30:27.347Z,7.37
2019-02-21T02:32:56.036Z,7.36
2019-02-21T02:35:24.099Z,7.35
2019-02-21T02:37:52.481Z,7.33
2019-02-21T02:40:20.547Z,7.32
2019-02-21T02:42:48.596Z,7.30
2019-02-21T02:45:17.834Z,7.29
2019-02-21T02:47:46.392Z,7.26
2019-02-21T02:50:14.788Z,7.22
2019-02-21T02:52:42.856Z,7.20
2019-02-21T02:55:11.029Z,7.18
2019-02-21T02:57:39.146Z,7.17
2019-02-21T03:00:10.164Z,7.15
2019-02-21T03:02:38.340Z,7.11
2019-02-21T03:05:06.592Z,7.11
2019-02-21T03:07:34.663Z,7.14
2019-02-21T03:10:04.759Z,7.14
2019-02-21T03:12:32.955Z,7.15
2019-02-21T03:15:02.136Z,7.14
2019-02-21T03:17:30.242Z,7.13
2019-02-21T03:19:58.480Z,7.09
2019-02-21T03:22:28.062Z,7.09
2019-02-21T03:24:56.341Z,7.07
2019-02-21T03:27:25.617Z,7.08
2019-02-21T03:29:53.767Z,7.07
2019-02-21T03:32:21.848Z,7.07
2019-02-21T03:34:51.211Z,7.05
2019-02-21T03:37:19.421Z,7.03
2019-02-21T03:39:47.862Z,6.99
2019-02-21T03:42:17.074Z,6.97
2019-02-21T03:44:45.293Z,6.95
2019-02-21T03:47:13.620Z,6.92
2019-02-21T03:49:42.775Z,6.92
2019-02-21T03:52:10.864Z,6.92
2019-02-21T03:54:39.034Z,6.91
2019-02-21T03:57:07.157Z,6.87
2019-02-21T03:59:35.839Z,6.86
2019-02-21T04:02:05.932Z,6.86
2019-02-21T04:04:35.199Z,6.84
2019-02-21T04:07:03.324Z,6.83
2019-02-21T04:09:31.472Z,6.79
2019-02-21T04:11:59.626Z,6.75
2019-02-21T04:14:28.021Z,6.73
2019-02-21T04:16:57.053Z,6.73
2019-02-21T04:19:25.501Z,6.70
2019-02-21T04:21:53.590Z,6.69
2019-02-21T04:24:21.653Z,6.65
2019-02-21T04:26:49.750Z,6.65
2019-02-21T04:29:17.932Z,6.65
2019-02-21T04:31:46.131Z,6.61
2019-02-21T04:34:14.194Z,6.60
2019-02-21T04:36:42.586Z,6.59
2019-02-21T04:39:10.653Z,6.54
2019-02-21T04:41:38.764Z,6.54
2019-02-21T04:44:06.896Z,6.55
2019-02-21T04:46:34.978Z,6.55
2019-02-21T04:49:03.056Z,6.55
2019-02-21T04:51:31.141Z,6.54
2019-02-21T04:53:59.601Z,6.53
2019-02-21T04:56:27.847Z,6.50
2019-02-21T04:58:56.226Z,6.46
2019-02-21T05:01:24.407Z,6.48
2019-02-21T05:03:53.580Z,6.48
2019-02-21T05:06:21.956Z,6.48
2019-02-21T05:08:50.157Z,6.47
2019-02-21T05:11:18.455Z,6.48
2019-02-21T05:13:46.527Z,6.49
2019-02-21T05:16:14.609Z,6.49
2019-02-21T05:18:42.921Z,6.47
2019-02-21T05:21:10.991Z,6.47
2019-02-21T05:23:39.190Z,6.46
2019-02-21T05:26:11.279Z,6.43
2019-02-21T05:28:41.273Z,6.42
2019-02-21T05:31:28.585Z,6.41
2019-02-21T05:34:01.633Z,6.42
2019-02-21T05:36:55.648Z,6.41
2019-02-21T05:39:36.647Z,6.38
2019-02-21T05:42:18.568Z,6.34
2019-02-21T05:45:10.986Z,6.35
2019-02-21T05:47:49.450Z,6.34
2019-02-21T05:50:32.280Z,6.33
2019-02-21T05:53:23.272Z,6.31
2019-02-21T05:55:59.250Z,6.25
2019-02-21T05:58:40.704Z,6.22
2019-02-21T06:01:16.956Z,6.19
2019-02-21T06:04:12.427Z,6.13
2019-02-21T06:07:12.522Z,6.12
2019-02-21T06:09:46.402Z,6.09
2019-02-21T06:12:36.811Z,6.06
2019-02-21T06:15:40.965Z,6.04
2019-02-21T06:18:23.454Z,6.04
2019-02-21T06:21:06.550Z,6.03
2019-02-21T06:23:42.015Z,6.02
2019-02-21T06:26:26.040Z,6.05
2019-02-21T06:29:22.464Z,6.04
2019-02-21T06:31:51.363Z,6.05
2019-02-21T06:34:19.916Z,6.07
2019-02-21T06:36:48.313Z,6.06
2019-02-21T06:39:16.642Z,6.08
2019-02-21T06:41:45.198Z,6.11
2019-02-21T06:44:13.996Z,6.12
2019-02-21T06:46:42.171Z,6.14
2019-02-21T06:49:10.380Z,6.16
2019-02-21T06:51:38.558Z,6.19
2019-02-21T06:54:09.246Z,6.21
2019-02-21T06:56:37.429Z,6.22
2019-02-21T06:59:05.521Z,6.24
2019-02-21T07:01:33.951Z,6.23
2019-02-21T07:04:02.128Z,6.21
2019-02-21T07:06:32.210Z,6.22
2019-02-21T07:09:01.006Z,6.23
2019-02-21T07:11:29.754Z,6.27
2019-02-21T07:14:03.477Z,6.32
2019-02-21T07:17:58.032Z,6.35
2019-02-21T07:20:51.935Z,6.40
2019-02-21T07:23:22.068Z,6.47
2019-02-21T07:25:56.269Z,6.53
2019-02-21T07:28:24.501Z,6.61
2019-02-21T07:30:53.954Z,6.70
2019-02-21T07:33:28.396Z,6.81
2019-02-21T07:35:52.264Z,6.92
2019-02-21T07:38:20.781Z,7.03
2019-02-21T07:40:48.831Z,7.17
2019-02-21T07:43:20.591Z,7.29
2019-02-21T07:45:48.931Z,7.41
2019-02-21T07:48:17.187Z,7.57
2019-02-21T07:50:45.487Z,7.72
2019-02-21T07:53:13.769Z,7.88
2019-02-21T07:55:41.872Z,8.07
2019-02-21T07:58:10.068Z,8.23
2019-02-21T08:00:39.110Z,8.39
2019-02-21T08:03:09.201Z,8.59
2019-02-21T08:05:37.917Z,8.76
2019-02-21T08:08:06.015Z,8.94
2019-02-21T08:10:34.637Z,9.10
2019-02-21T08:13:02.804Z,9.27
2019-02-21T08:15:30.880Z,9.48
2019-02-21T08:17:58.981Z,9.67
2019-02-21T08:20:34.024Z,9.87
2019-02-21T08:22:57.140Z,10.09
2019-02-21T08:25:25.232Z,10.33
2019-02-21T08:27:53.391Z,10.56
2019-02-21T08:30:21.474Z,10.79
2019-02-21T08:33:09.142Z,11.00
2019-02-21T08:35:38.325Z,11.25
2019-02-21T08:38:06.511Z,11.59
2019-02-21T08:40:35.828Z,11.84
2019-02-21T08:43:04.253Z,12.06
2019-02-21T08:45:32.579Z,12.32
2019-02-21T08:48:00.607Z,12.62
2019-02-21T08:50:29.656Z,12.91
2019-02-21T08:53:00.831Z,13.15
2019-02-21T08:55:29.227Z,13.38
2019-02-21T08:57:57.632Z,13.73
2019-02-21T09:00:26.084Z,13.97
2019-02-21T09:02:54.502Z,14.19
2019-02-21T09:05:22.688Z,14.44
2019-02-21T09:07:50.876Z,14.78
2019-02-21T09:10:20.773Z,15.08
2019-02-21T09:12:49.947Z,15.41
2019-02-21T09:15:18.126Z,15.70
2019-02-21T09:17:46.206Z,16.05
2019-02-21T09:20:14.371Z,16.42
2019-02-21T09:22:42.544Z,16.77
2019-02-21T09:25:11.449Z,17.06
2019-02-21T09:27:40.626Z,17.39
2019-02-21T09:30:13.781Z,17.71
2019-02-21T09:32:42.381Z,18.03
2019-02-21T09:35:10.562Z,18.12
2019-02-21T09:37:40.569Z,18.38
2019-02-21T09:40:11.186Z,18.63
2019-02-21T09:42:39.409Z,18.78
2019-02-21T09:45:11.943Z,19.03
2019-02-21T09:47:40.007Z,19.06
2019-02-21T09:50:09.601Z,18.79
2019-02-21T09:52:37.947Z,18.75
2019-02-21T09:55:09.147Z,18.77
2019-02-21T09:57:37.425Z,18.94
2019-02-21T10:00:11.362Z,19.26
2019-02-21T10:02:41.968Z,19.56
2019-02-21T10:05:09.652Z,19.81
2019-02-21T10:07:39.360Z,20.13
2019-02-21T10:10:11.599Z,20.54
2019-02-21T10:12:41.355Z,20.95
2019-02-21T10:15:10.423Z,21.34
2019-02-21T10:17:38.643Z,21.70
2019-02-21T10:20:11.111Z,22.03
2019-02-21T10:22:39.309Z,22.34
2019-02-21T10:25:16.275Z,22.64
2019-02-21T10:27:44.352Z,22.86
2019-02-21T10:30:14.210Z,23.04
2019-02-21T10:32:42.277Z,23.14
2019-02-21T10:35:10.330Z,23.31
2019-02-21T10:37:38.412Z,23.45
2019-02-21T10:40:09.441Z,23.53
2019-02-21T10:42:37.694Z,23.59
2019-02-21T10:45:09.601Z,23.76
2019-02-21T10:47:37.970Z,23.84
2019-02-21T10:50:09.766Z,23.97
2019-02-21T10:52:37.958Z,24.12
2019-02-21T10:55:07.987Z,24.33
2019-02-21T10:57:38.280Z,24.69
2019-02-21T11:00:12.282Z,25.16
2019-02-21T11:02:41.336Z,25.67
2019-02-21T11:05:10.148Z,26.13
2019-02-21T11:07:38.694Z,26.57
2019-02-21T11:10:07.534Z,26.93
2019-02-21T11:12:35.803Z,27.15
2019-02-21T11:15:07.270Z,27.45
2019-02-21T11:17:35.338Z,27.73
2019-02-21T11:20:06.879Z,27.98
2019-02-21T11:22:34.999Z,28.16
2019-02-21T11:25:03.754Z,28.32
2019-02-21T11:27:31.939Z,28.58
2019-02-21T11:30:00.008Z,28.84
2019-02-21T11:32:28.273Z,29.17
2019-02-21T11:35:05.769Z,29.49
2019-02-21T11:37:26.434Z,29.81
2019-02-21T11:39:54.506Z,30.11
2019-02-21T11:42:22.696Z,30.42
2019-02-21T11:44:50.725Z,30.68
2019-02-21T11:47:18.813Z,30.82
2019-02-21T11:49:46.882Z,30.98
2019-02-21T11:52:14.954Z,31.02
2019-02-21T11:54:43.384Z,31.09
2019-02-21T11:57:12.730Z,31.24
2019-02-21T11:59:42.722Z,31.29
2019-02-21T12:02:11.767Z,31.14
2019-02-21T12:04:40.037Z,30.90
2019-02-21T12:07:08.448Z,31.00
2019-02-21T12:09:36.804Z,31.09
2019-02-21T12:12:06.976Z,31.24
2019-02-21T12:14:35.057Z,31.49
2019-02-21T12:17:03.323Z,31.81
2019-02-21T12:19:31.360Z,32.15
2019-02-21T12:21:59.605Z,32.42
2019-02-21T12:24:28.020Z,32.62
2019-02-21T12:26:56.087Z,32.79
2019-02-21T12:29:24.483Z,32.93
2019-02-21T12:31:52.547Z,32.99
2019-02-21T12:34:20.915Z,32.80
2019-02-21T12:36:48.964Z,32.52
2019-02-21T12:39:17.018Z,32.35
2019-02-21T12:41:45.101Z,32.01
2019-02-21T12:44:13.136Z,31.70
2019-02-21T12:46:41.204Z,31.59
2019-02-21T12:49:10.738Z,31.51
2019-02-21T12:51:39.375Z,31.26
2019-02-21T12:54:07.740Z,30.86
2019-02-21T12:56:35.829Z,30.57
2019-02-21T12:59:03.923Z,30.40
2019-02-21T13:01:31.984Z,30.32
2019-02-21T13:04:00.557Z,30.40
2019-02-21T13:06:28.616Z,30.46
2019-02-21T13:08:57.043Z,30.52
2019-02-21T13:11:25.134Z,30.69
2019-02-21T13:13:53.214Z,30.90
2019-02-21T13:16:21.251Z,31.08
2019-02-21T13:18:49.336Z,31.25
2019-02-21T13:21:17.737Z,31.34
2019-02-21T13:23:45.922Z,31.38
2019-02-21T13:26:14.403Z,31.45
2019-02-21T13:28:42.825Z,31.54
2019-02-21T13:31:12.090Z,31.67
2019-02-21T13:33:40.439Z,31.80
2019-02-21T13:36:09.600Z,31.98
2019-02-21T13:38:38.213Z,32.16
2019-02-21T13:41:06.252Z,32.32
2019-02-21T13:43:34.601Z,32.42
2019-02-21T13:46:02.752Z,32.46
2019-02-21T13:48:31.218Z,32.46
2019-02-21T13:51:00.006Z,32.48
2019-02-21T13:53:28.377Z,32.53
2019-02-21T13:55:56.609Z,32.54
2019-02-21T13:58:24.682Z,32.45
2019-02-21T14:00:53.827Z,32.22
2019-02-21T14:03:21.918Z,32.01
2019-02-21T14:05:49.991Z,31.85
2019-02-21T14:08:18.039Z,31.70
2019-02-21T14:10:46.099Z,31.53
2019-02-21T14:13:14.289Z,31.30
2019-02-21T14:15:43.452Z,30.80
2019-02-21T14:18:14.813Z,30.34
2019-02-21T14:20:45.621Z,29.92
2019-02-21T14:23:13.423Z,29.57
2019-02-21T14:25:41.484Z,29.25
2019-02-21T14:28:09.668Z,29.03
2019-02-21T14:30:38.078Z,28.84
2019-02-21T14:33:06.175Z,28.73
2019-02-21T14:35:34.341Z,28.61
2019-02-21T14:38:02.538Z,28.50
2019-02-21T14:40:30.566Z,28.41
2019-02-21T14:42:58.762Z,28.31
2019-02-21T14:45:28.283Z,28.19
2019-02-21T14:47:56.519Z,28.09
2019-02-21T14:50:24.570Z,28.00
2019-02-21T14:52:53.808Z,27.91
2019-02-21T14:55:21.869Z,27.84
2019-02-21T14:57:50.431Z,27.78
2019-02-21T15:00:20.473Z,27.68
2019-02-21T15:02:49.672Z,27.52
2019-02-21T15:05:18.276Z,27.34
2019-02-21T15:07:46.351Z,27.14
2019-02-21T15:10:15.089Z,26.94
2019-02-21T15:12:44.265Z,26.74
2019-02-21T15:15:14.413Z,26.54
2019-02-21T15:17:42.713Z,26.34
2019-02-21T15:20:13.148Z,26.14
2019-02-21T15:22:41.355Z,25.95
2019-02-21T15:25:09.528Z,25.77
2019-02-21T15:27:39.767Z,25.62
2019-02-21T15:30:11.714Z,25.46
2019-02-21T15:32:40.496Z,25.30
2019-02-21T15:35:08.688Z,25.16
2019-02-21T15:37:36.744Z,25.04
2019-02-21T15:40:08.636Z,24.94
2019-02-21T15:42:36.209Z,24.82
2019-02-21T15:45:05.964Z,24.72
2019-02-21T15:47:34.138Z,24.60
2019-02-21T15:50:02.845Z,24.50
2019-02-21T15:52:32.632Z,24.41
2019-02-21T15:55:11.841Z,24.32
2019-02-21T15:57:30.923Z,24.21
2019-02-21T15:59:59.011Z,24.12
2019-02-21T16:02:27.069Z,24.01
2019-02-21T16:04:56.886Z,23.91
2019-02-21T16:07:24.953Z,23.77
2019-02-21T16:09:53.330Z,23.60
2019-02-21T16:12:21.465Z,23.43
2019-02-21T16:14:49.943Z,23.25
2019-02-21T16:17:17.992Z,23.02
2019-02-21T16:19:46.077Z,22.82
2019-02-21T16:22:15.462Z,22.60
2019-02-21T16:24:43.862Z,22.41
2019-02-21T16:27:12.342Z,22.20
2019-02-21T16:29:40.373Z,22.01
2019-02-21T16:32:08.504Z,21.82
2019-02-21T16:34:36.883Z,21.63
2019-02-21T16:37:05.037Z,21.47
2019-02-21T16:39:33.349Z,21.31
2019-02-21T16:42:01.752Z,21.17
2019-02-21T16:44:29.845Z,21.05
2019-02-21T16:46:57.892Z,20.95
2019-02-21T16:49:25.971Z,20.85
2019-02-21T16:51:54.644Z,20.77
2019-02-21T16:54:22.729Z,20.68
2019-02-21T16:56:50.836Z,20.58
2019-02-21T16:59:21.088Z,20.51
2019-02-21T17:01:49.157Z,20.40
2019-02-21T17:04:17.362Z,20.29
2019-02-21T17:06:45.636Z,20.17
2019-02-21T17:09:14.888Z,20.06
2019-02-21T17:11:44.182Z,19.94
2019-02-21T17:14:12.346Z,19.81
2019-02-21T17:16:41.878Z,19.67
2019-02-21T17:19:10.052Z,19.54
2019-02-21T17:21:38.454Z,19.40
2019-02-21T17:24:06.539Z,19.27
2019-02-21T17:26:34.737Z,19.13
2019-02-21T17:29:02.912Z,18.98
2019-02-21T17:31:31.015Z,18.84
2019-02-21T17:33:59.184Z,18.70
2019-02-21T17:36:27.265Z,18.55
2019-02-21T17:38:55.338Z,18.39
2019-02-21T17:41:24.612Z,18.24
2019-02-21T17:43:52.776Z,18.12
2019-02-21T17:46:22.032Z,17.97
2019-02-21T17:48:51.916Z,17.83
2019-02-21T17:51:20.485Z,17.70
2019-02-21T17:53:48.734Z,17.57
2019-02-21T17:56:17.185Z,17.42
2019-02-21T17:58:45.842Z,17.25
2019-02-21T18:01:13.969Z,17.08
2019-02-21T18:03:42.143Z,16.94
2019-02-21T18:06:17.432Z,16.80
2019-02-21T18:08:45.465Z,16.70
2019-02-21T18:11:13.654Z,16.57
2019-02-21T18:13:43.537Z,16.46
2019-02-21T18:16:12.086Z,16.33
2019-02-21T18:18:40.161Z,16.22
2019-02-21T18:21:08.571Z,16.12
2019-02-21T18:23:36.963Z,16.02
2019-02-21T18:26:16.825Z,15.93
2019-02-21T18:28:44.925Z,15.82
2019-02-21T18:31:23.840Z,15.70
2019-02-21T18:33:52.101Z,15.60
2019-02-21T18:36:20.366Z,15.50
2019-02-21T18:38:48.871Z,15.40
2019-02-21T18:41:17.436Z,15.29
2019-02-21T18:43:45.844Z,15.17
2019-02-21T18:46:16.063Z,15.02
2019-02-21T18:48:46.143Z,14.83
2019-02-21T18:51:14.241Z,14.63
2019-02-21T18:53:42.336Z,14.43
2019-02-21T18:56:10.581Z,14.28
2019-02-21T18:58:40.761Z,14.16
2019-02-21T19:01:08.966Z,14.08
2019-02-21T19:03:37.139Z,14.03
2019-02-21T19:06:05.337Z,13.97
2019-02-21T19:08:34.597Z,13.94
2019-02-21T19:11:03.896Z,13.91
2019-02-21T19:13:31.972Z,13.88
2019-02-21T19:16:02.066Z,13.84
2019-02-21T19:18:31.233Z,13.76
2019-02-21T19:20:59.521Z,13.68
2019-02-21T19:23:27.767Z,13.60
2019-02-21T19:25:55.891Z,13.52
2019-02-21T19:28:23.969Z,13.47
2019-02-21T19:30:58.270Z,13.43
2019-02-21T19:33:26.546Z,13.38
2019-02-21T19:35:55.158Z,13.30
2019-02-21T19:38:23.616Z,13.22
2019-02-21T19:40:51.750Z,13.16
2019-02-21T19:43:20.135Z,13.12
2019-02-21T19:45:48.331Z,13.09
2019-02-21T19:48:17.259Z,13.05
2019-02-21T19:50:45.382Z,13.01
2019-02-21T19:53:14.465Z,12.97
2019-02-21T19:55:43.791Z,12.92
2019-02-21T19:58:11.950Z,12.89
2019-02-21T20:00:40.591Z,12.85
2019-02-21T20:03:10.860Z,12.80
2019-02-21T20:05:38.949Z,12.76
2019-02-21T20:08:08.973Z,12.74
2019-02-21T20:10:37.390Z,12.74
2019-02-21T20:13:10.597Z,12.74
2019-02-21T20:15:39.129Z,12.74
2019-02-21T20:18:07.203Z,12.74
2019-02-21T20:20:35.287Z,12.75
2019-02-21T20:23:03.368Z,12.77
2019-02-21T20:25:31.871Z,12.78
2019-02-21T20:27:59.989Z,12.79
2019-02-21T20:30:28.062Z,12.80
2019-02-21T20:32:56.281Z,12.81
2019-02-21T20:35:24.443Z,12.80
2019-02-21T20:37:52.544Z,12.79
2019-02-21T20:40:20.805Z,12.77
2019-02-21T20:42:49.061Z,12.75
2019-02-21T20:45:17.235Z,12.72
2019-02-21T20:47:45.476Z,12.69
2019-02-21T20:50:14.097Z,12.65
2019-02-21T20:52:42.368Z,12.61
2019-02-21T20:55:10.997Z,12.58
2019-02-21T20:57:39.514Z,12.58
2019-02-21T21:00:11.298Z,12.55
2019-02-21T21:02:39.803Z,12.52
2019-02-21T21:05:08.192Z,12.50
2019-02-21T21:07:36.714Z,12.48
2019-02-21T21:10:08.589Z,12.48
2019-02-21T21:12:38.577Z,12.48
2019-02-21T21:15:09.431Z,12.50
2019-02-21T21:17:37.641Z,12.49
2019-02-21T21:20:15.955Z,12.49
2019-02-21T21:22:38.473Z,12.49
2019-02-21T21:25:09.566Z,12.45
2019-02-21T21:27:39.186Z,12.45
2019-02-21T21:30:10.199Z,12.43
2019-02-21T21:32:40.013Z,12.41
2019-02-21T21:35:08.220Z,12.39
2019-02-21T21:37:36.700Z,12.37
2019-02-21T21:40:07.137Z,12.32
2019-02-21T21:42:35.429Z,12.28
2019-02-21T21:45:05.715Z,12.24
2019-02-21T21:47:33.808Z,12.22
2019-02-21T21:50:01.851Z,12.18
2019-02-21T21:52:31.456Z,12.13
2019-02-21T21:54:59.557Z,12.09
2019-02-21T21:57:27.642Z,12.07
2019-02-21T21:59:55.759Z,12.03
2019-02-21T22:02:23.842Z,12.02
2019-02-21T22:04:51.896Z,12.00
2019-02-21T22:07:20.399Z,11.99
2019-02-21T22:09:48.762Z,11.99
2019-02-21T22:12:18.012Z,12.00
2019-02-21T22:14:47.337Z,12.00
2019-02-21T22:17:15.411Z,12.00
2019-02-21T22:19:43.487Z,11.99
2019-02-21T22:22:11.593Z,11.98
2019-02-21T22:24:39.683Z,11.95
2019-02-21T22:27:08.129Z,11.90
2019-02-21T22:29:36.293Z,11.87
2019-02-21T22:32:04.373Z,11.86
2019-02-21T22:34:32.442Z,11.85
2019-02-21T22:37:00.624Z,11.86
2019-02-21T22:39:28.694Z,11.86
2019-02-21T22:41:56.784Z,11.85
2019-02-21T22:44:25.230Z,11.83
2019-02-21T22:46:53.398Z,11.81
2019-02-21T22:49:22.458Z,11.83
2019-02-21T22:51:50.581Z,11.81
2019-02-21T22:54:20.107Z,11.79
2019-02-21T22:56:48.173Z,11.75
2019-02-21T22:59:16.361Z,11.72
2019-02-21T23:01:46.489Z,11.69
2019-02-21T23:05:16.845Z,11.69
2019-02-21T23:08:48.871Z,11.68
2019-02-21T23:11:16.964Z,11.66
2019-02-21T23:13:45.153Z,11.65
2019-02-21T23:16:13.454Z,11.67
2019-02-21T23:18:41.565Z,11.68
2019-02-21T23:21:09.774Z,11.68
2019-02-21T23:23:38.935Z,11.67
2019-02-21T23:26:07.528Z,11.64
2019-02-21T23:28:35.677Z,11.63
2019-02-21T23:31:03.758Z,11.61
2019-02-21T23:33:34.253Z,11.59
2019-02-21T23:36:02.801Z,11.54
2019-02-21T23:38:31.864Z,11.55
2019-02-21T23:40:59.963Z,11.57
2019-02-21T23:43:28.345Z,11.59
2019-02-21T23:45:56.719Z,11.65
2019-02-21T23:48:24.800Z,11.67
2019-02-21T23:50:53.847Z,11.71
2019-02-21T23:53:21.932Z,11.72
2019-02-21T23:55:49.989Z,11.71
2019-02-21T23:58:19.059Z,11.72
